sensor_id;sensor_type;location;lat;lon;timestamp;P1;durP1;ratioP1;P2;durP2;ratioP2
53521;SDS011;39398;48.382;9.802;2023-12-20T00:00:56;9.25;;;6.50;;
53521;SDS011;39398;48.382;9.802;2023-12-20T00:05:59;10.38;;;6.07;;
53521;SDS011;39398;48.382;9.802;2023-12-20T00:11:01;8.43;;;6.00;;
53521;SDS011;39398;48.382;9.802;2023-12-20T00:16:02;10.50;;;5.78;;
53521;SDS011;39398;48.382;9.802;2023-12-20T00:21:06;7.40;;;5.68;;
53521;SDS011;39398;48.382;9.802;2023-12-20T00:26:07;7.88;;;6.00;;
53521;SDS011;39398;48.382;9.802;2023-12-20T00:31:09;7.63;;;5.25;;
53521;SDS011;39398;48.382;9.802;2023-12-20T00:36:12;7.63;;;4.80;;
53521;SDS011;39398;48.382;9.802;2023-12-20T00:41:14;7.30;;;5.05;;
53521;SDS011;39398;48.382;9.802;2023-12-20T00:46:15;7.35;;;4.90;;
53521;SDS011;39398;48.382;9.802;2023-12-20T00:51:18;6.70;;;5.00;;
53521;SDS011;39398;48.382;9.802;2023-12-20T00:56:20;5.55;;;4.15;;
53521;SDS011;39398;48.382;9.802;2023-12-20T01:01:22;8.07;;;5.25;;
53521;SDS011;39398;48.382;9.802;2023-12-20T01:06:25;5.65;;;4.68;;
53521;SDS011;39398;48.382;9.802;2023-12-20T01:11:26;6.47;;;4.70;;
53521;SDS011;39398;48.382;9.802;2023-12-20T01:16:29;8.30;;;4.75;;
53521;SDS011;39398;48.382;9.802;2023-12-20T01:21:31;7.65;;;4.40;;
53521;SDS011;39398;48.382;9.802;2023-12-20T01:26:33;7.57;;;5.00;;
53521;SDS011;39398;48.382;9.802;2023-12-20T01:31:35;7.70;;;4.22;;
53521;SDS011;39398;48.382;9.802;2023-12-20T01:36:38;6.38;;;4.78;;
53521;SDS011;39398;48.382;9.802;2023-12-20T01:41:39;6.97;;;4.70;;
53521;SDS011;39398;48.382;9.802;2023-12-20T01:46:41;8.40;;;4.53;;
53521;SDS011;39398;48.382;9.802;2023-12-20T01:51:44;6.38;;;4.20;;
53521;SDS011;39398;48.382;9.802;2023-12-20T01:56:46;5.15;;;4.03;;
53521;SDS011;39398;48.382;9.802;2023-12-20T02:01:49;5.63;;;4.57;;
53521;SDS011;39398;48.382;9.802;2023-12-20T02:06:53;5.53;;;4.65;;
53521;SDS011;39398;48.382;9.802;2023-12-20T02:11:57;5.38;;;3.90;;
53521;SDS011;39398;48.382;9.802;2023-12-20T02:16:58;5.43;;;4.18;;
53521;SDS011;39398;48.382;9.802;2023-12-20T02:22:08;5.53;;;4.47;;
53521;SDS011;39398;48.382;9.802;2023-12-20T02:27:10;7.22;;;4.43;;
53521;SDS011;39398;48.382;9.802;2023-12-20T02:32:13;5.57;;;4.57;;
53521;SDS011;39398;48.382;9.802;2023-12-20T02:37:16;6.80;;;5.10;;
53521;SDS011;39398;48.382;9.802;2023-12-20T02:42:18;7.05;;;5.07;;
53521;SDS011;39398;48.382;9.802;2023-12-20T02:47:19;5.72;;;4.53;;
53521;SDS011;39398;48.382;9.802;2023-12-20T02:52:22;6.53;;;4.75;;
53521;SDS011;39398;48.382;9.802;2023-12-20T02:57:24;6.75;;;5.13;;
53521;SDS011;39398;48.382;9.802;2023-12-20T03:02:28;7.25;;;5.45;;
53521;SDS011;39398;48.382;9.802;2023-12-20T03:07:31;6.85;;;5.72;;
53521;SDS011;39398;48.382;9.802;2023-12-20T03:12:33;7.18;;;5.18;;
53521;SDS011;39398;48.382;9.802;2023-12-20T03:17:35;7.72;;;5.28;;
53521;SDS011;39398;48.382;9.802;2023-12-20T03:22:38;8.18;;;5.35;;
53521;SDS011;39398;48.382;9.802;2023-12-20T03:27:39;7.68;;;5.70;;
53521;SDS011;39398;48.382;9.802;2023-12-20T03:32:41;6.95;;;4.72;;
53521;SDS011;39398;48.382;9.802;2023-12-20T03:37:44;8.32;;;5.00;;
53521;SDS011;39398;48.382;9.802;2023-12-20T03:42:46;7.10;;;5.03;;
53521;SDS011;39398;48.382;9.802;2023-12-20T03:47:47;6.65;;;5.10;;
53521;SDS011;39398;48.382;9.802;2023-12-20T03:52:51;6.90;;;4.45;;
53521;SDS011;39398;48.382;9.802;2023-12-20T03:57:53;6.00;;;4.55;;
53521;SDS011;39398;48.382;9.802;2023-12-20T04:02:55;6.00;;;4.55;;
53521;SDS011;39398;48.382;9.802;2023-12-20T04:07:59;5.95;;;4.53;;
53521;SDS011;39398;48.382;9.802;2023-12-20T04:13:01;7.38;;;4.75;;
53521;SDS011;39398;48.382;9.802;2023-12-20T04:18:02;6.55;;;4.53;;
53521;SDS011;39398;48.382;9.802;2023-12-20T04:23:05;8.07;;;5.40;;
53521;SDS011;39398;48.382;9.802;2023-12-20T04:28:07;7.38;;;4.70;;
53521;SDS011;39398;48.382;9.802;2023-12-20T04:33:09;5.32;;;3.65;;
53521;SDS011;39398;48.382;9.802;2023-12-20T04:38:12;3.78;;;2.83;;
53521;SDS011;39398;48.382;9.802;2023-12-20T04:43:13;2.40;;;2.20;;
53521;SDS011;39398;48.382;9.802;2023-12-20T04:48:15;2.30;;;1.27;;
53521;SDS011;39398;48.382;9.802;2023-12-20T04:53:19;1.40;;;1.30;;
53521;SDS011;39398;48.382;9.802;2023-12-20T04:58:21;1.63;;;1.10;;
53521;SDS011;39398;48.382;9.802;2023-12-20T05:03:22;1.55;;;1.35;;
53521;SDS011;39398;48.382;9.802;2023-12-20T05:08:26;1.42;;;1.33;;
53521;SDS011;39398;48.382;9.802;2023-12-20T05:13:27;0.90;;;0.90;;
53521;SDS011;39398;48.382;9.802;2023-12-20T05:18:42;0.93;;;0.93;;
53521;SDS011;39398;48.382;9.802;2023-12-20T05:23:47;1.10;;;1.00;;
53521;SDS011;39398;48.382;9.802;2023-12-20T05:28:49;0.60;;;0.60;;
53521;SDS011;39398;48.382;9.802;2023-12-20T05:33:50;0.70;;;0.68;;
53521;SDS011;39398;48.382;9.802;2023-12-20T05:38:54;0.60;;;0.60;;
53521;SDS011;39398;48.382;9.802;2023-12-20T05:43:55;0.60;;;0.60;;
53521;SDS011;39398;48.382;9.802;2023-12-20T05:48:57;1.45;;;1.30;;
53521;SDS011;39398;48.382;9.802;2023-12-20T05:54:00;0.70;;;0.70;;
53521;SDS011;39398;48.382;9.802;2023-12-20T05:59:01;1.10;;;1.00;;
53521;SDS011;39398;48.382;9.802;2023-12-20T06:04:03;0.82;;;0.60;;
53521;SDS011;39398;48.382;9.802;2023-12-20T06:09:06;0.80;;;0.50;;
53521;SDS011;39398;48.382;9.802;2023-12-20T06:14:08;0.60;;;0.60;;
53521;SDS011;39398;48.382;9.802;2023-12-20T06:19:09;0.50;;;0.50;;
53521;SDS011;39398;48.382;9.802;2023-12-20T06:24:12;0.60;;;0.60;;
53521;SDS011;39398;48.382;9.802;2023-12-20T06:29:14;1.05;;;0.65;;
53521;SDS011;39398;48.382;9.802;2023-12-20T06:34:16;0.60;;;0.60;;
53521;SDS011;39398;48.382;9.802;2023-12-20T06:39:19;12.00;;;8.23;;
53521;SDS011;39398;48.382;9.802;2023-12-20T06:44:20;1.50;;;0.90;;
53521;SDS011;39398;48.382;9.802;2023-12-20T06:49:22;1.30;;;0.90;;
53521;SDS011;39398;48.382;9.802;2023-12-20T06:54:25;0.80;;;0.80;;
53521;SDS011;39398;48.382;9.802;2023-12-20T06:59:26;0.65;;;0.65;;
53521;SDS011;39398;48.382;9.802;2023-12-20T07:04:28;1.10;;;1.10;;
53521;SDS011;39398;48.382;9.802;2023-12-20T07:09:31;0.85;;;0.85;;
53521;SDS011;39398;48.382;9.802;2023-12-20T07:14:33;1.10;;;1.00;;
53521;SDS011;39398;48.382;9.802;2023-12-20T07:19:34;1.48;;;1.27;;
53521;SDS011;39398;48.382;9.802;2023-12-20T07:24:37;7.05;;;5.50;;
53521;SDS011;39398;48.382;9.802;2023-12-20T07:29:39;1.65;;;1.55;;
53521;SDS011;39398;48.382;9.802;2023-12-20T07:34:41;1.38;;;1.27;;
53521;SDS011;39398;48.382;9.802;2023-12-20T07:39:44;1.60;;;1.50;;
53521;SDS011;39398;48.382;9.802;2023-12-20T07:44:46;1.63;;;1.20;;
53521;SDS011;39398;48.382;9.802;2023-12-20T07:49:48;3.00;;;1.17;;
53521;SDS011;39398;48.382;9.802;2023-12-20T07:54:51;2.85;;;2.53;;
53521;SDS011;39398;48.382;9.802;2023-12-20T07:59:53;2.30;;;1.77;;
53521;SDS011;39398;48.382;9.802;2023-12-20T08:04:54;2.45;;;2.25;;
53521;SDS011;39398;48.382;9.802;2023-12-20T08:09:57;5.72;;;2.95;;
53521;SDS011;39398;48.382;9.802;2023-12-20T08:14:59;5.18;;;3.15;;
53521;SDS011;39398;48.382;9.802;2023-12-20T08:20:01;3.28;;;2.80;;
53521;SDS011;39398;48.382;9.802;2023-12-20T08:25:04;2.60;;;2.40;;
53521;SDS011;39398;48.382;9.802;2023-12-20T08:30:07;1.58;;;1.48;;
53521;SDS011;39398;48.382;9.802;2023-12-20T08:35:10;2.42;;;2.10;;
53521;SDS011;39398;48.382;9.802;2023-12-20T08:40:13;1.75;;;1.65;;
53521;SDS011;39398;48.382;9.802;2023-12-20T08:45:15;1.95;;;1.83;;
53521;SDS011;39398;48.382;9.802;2023-12-20T08:50:16;3.60;;;2.60;;
53521;SDS011;39398;48.382;9.802;2023-12-20T08:55:20;3.15;;;2.28;;
53521;SDS011;39398;48.382;9.802;2023-12-20T09:00:21;2.20;;;1.60;;
53521;SDS011;39398;48.382;9.802;2023-12-20T09:05:23;1.30;;;1.20;;
53521;SDS011;39398;48.382;9.802;2023-12-20T09:10:26;1.00;;;1.00;;
53521;SDS011;39398;48.382;9.802;2023-12-20T09:15:28;1.30;;;1.20;;
53521;SDS011;39398;48.382;9.802;2023-12-20T09:20:32;1.58;;;0.82;;
53521;SDS011;39398;48.382;9.802;2023-12-20T09:25:36;1.55;;;1.05;;
53521;SDS011;39398;48.382;9.802;2023-12-20T09:30:37;2.85;;;2.58;;
53521;SDS011;39398;48.382;9.802;2023-12-20T09:35:39;1.27;;;1.00;;
53521;SDS011;39398;48.382;9.802;2023-12-20T09:40:42;0.73;;;0.73;;
53521;SDS011;39398;48.382;9.802;2023-12-20T09:45:45;0.70;;;0.70;;
53521;SDS011;39398;48.382;9.802;2023-12-20T09:50:48;0.80;;;0.80;;
53521;SDS011;39398;48.382;9.802;2023-12-20T09:55:55;0.98;;;0.98;;
53521;SDS011;39398;48.382;9.802;2023-12-20T10:00:59;0.70;;;0.70;;
53521;SDS011;39398;48.382;9.802;2023-12-20T10:06:03;0.90;;;0.90;;
53521;SDS011;39398;48.382;9.802;2023-12-20T10:11:07;0.80;;;0.80;;
53521;SDS011;39398;48.382;9.802;2023-12-20T10:16:08;0.70;;;0.70;;
53521;SDS011;39398;48.382;9.802;2023-12-20T10:21:10;0.60;;;0.60;;
53521;SDS011;39398;48.382;9.802;2023-12-20T10:26:18;0.70;;;0.70;;
53521;SDS011;39398;48.382;9.802;2023-12-20T10:31:26;0.70;;;0.70;;
53521;SDS011;39398;48.382;9.802;2023-12-20T10:36:30;0.70;;;0.70;;
53521;SDS011;39398;48.382;9.802;2023-12-20T10:41:34;1.13;;;1.00;;
53521;SDS011;39398;48.382;9.802;2023-12-20T10:46:36;6.15;;;1.13;;
53521;SDS011;39398;48.382;9.802;2023-12-20T10:51:40;1.27;;;1.20;;
53521;SDS011;39398;48.382;9.802;2023-12-20T10:56:43;1.75;;;1.63;;
53521;SDS011;39398;48.382;9.802;2023-12-20T11:01:45;2.40;;;1.35;;
53521;SDS011;39398;48.382;9.802;2023-12-20T11:06:49;3.13;;;1.52;;
53521;SDS011;39398;48.382;9.802;2023-12-20T11:12:01;1.60;;;1.40;;
53521;SDS011;39398;48.382;9.802;2023-12-20T11:17:08;4.68;;;1.80;;
53521;SDS011;39398;48.382;9.802;2023-12-20T11:22:10;4.80;;;2.58;;
53521;SDS011;39398;48.382;9.802;2023-12-20T11:27:13;3.03;;;2.17;;
53521;SDS011;39398;48.382;9.802;2023-12-20T11:32:27;3.67;;;1.75;;
53521;SDS011;39398;48.382;9.802;2023-12-20T11:37:29;3.35;;;1.60;;
53521;SDS011;39398;48.382;9.802;2023-12-20T11:42:33;2.25;;;1.52;;
53521;SDS011;39398;48.382;9.802;2023-12-20T11:52:41;2.50;;;1.73;;
53521;SDS011;39398;48.382;9.802;2023-12-20T11:57:44;3.45;;;2.08;;
53521;SDS011;39398;48.382;9.802;2023-12-20T12:02:56;7.13;;;1.83;;
53521;SDS011;39398;48.382;9.802;2023-12-20T12:07:58;2.60;;;1.40;;
53521;SDS011;39398;48.382;9.802;2023-12-20T12:18:06;2.20;;;1.73;;
53521;SDS011;39398;48.382;9.802;2023-12-20T12:23:08;3.58;;;1.48;;
53521;SDS011;39398;48.382;9.802;2023-12-20T12:28:11;3.65;;;1.92;;
53521;SDS011;39398;48.382;9.802;2023-12-20T12:33:13;2.95;;;1.98;;
53521;SDS011;39398;48.382;9.802;2023-12-20T12:38:15;3.17;;;1.83;;
53521;SDS011;39398;48.382;9.802;2023-12-20T12:43:18;2.97;;;1.88;;
53521;SDS011;39398;48.382;9.802;2023-12-20T12:48:19;3.50;;;2.00;;
53521;SDS011;39398;48.382;9.802;2023-12-20T12:53:21;1.88;;;1.60;;
53521;SDS011;39398;48.382;9.802;2023-12-20T12:58:24;3.95;;;2.17;;
53521;SDS011;39398;48.382;9.802;2023-12-20T13:03:27;4.85;;;1.60;;
53521;SDS011;39398;48.382;9.802;2023-12-20T13:08:29;2.85;;;1.73;;
53521;SDS011;39398;48.382;9.802;2023-12-20T13:13:32;4.68;;;1.98;;
53521;SDS011;39398;48.382;9.802;2023-12-20T13:18:34;2.53;;;1.70;;
53521;SDS011;39398;48.382;9.802;2023-12-20T13:23:36;3.47;;;2.10;;
53521;SDS011;39398;48.382;9.802;2023-12-20T13:28:42;3.17;;;1.90;;
53521;SDS011;39398;48.382;9.802;2023-12-20T13:33:44;3.38;;;1.83;;
53521;SDS011;39398;48.382;9.802;2023-12-20T13:38:45;1.77;;;1.45;;
53521;SDS011;39398;48.382;9.802;2023-12-20T13:43:48;4.70;;;1.90;;
53521;SDS011;39398;48.382;9.802;2023-12-20T13:48:50;5.70;;;2.00;;
53521;SDS011;39398;48.382;9.802;2023-12-20T13:53:52;2.65;;;1.52;;
53521;SDS011;39398;48.382;9.802;2023-12-20T13:58:54;5.40;;;1.80;;
53521;SDS011;39398;48.382;9.802;2023-12-20T14:03:56;2.83;;;1.42;;
53521;SDS011;39398;48.382;9.802;2023-12-20T14:08:58;6.22;;;1.70;;
53521;SDS011;39398;48.382;9.802;2023-12-20T14:14:01;8.02;;;1.90;;
53521;SDS011;39398;48.382;9.802;2023-12-20T14:19:03;4.95;;;1.60;;
53521;SDS011;39398;48.382;9.802;2023-12-20T14:24:05;4.43;;;1.60;;
53521;SDS011;39398;48.382;9.802;2023-12-20T14:29:08;4.97;;;2.13;;
53521;SDS011;39398;48.382;9.802;2023-12-20T14:34:10;2.35;;;1.70;;
53521;SDS011;39398;48.382;9.802;2023-12-20T14:39:12;9.38;;;2.95;;
53521;SDS011;39398;48.382;9.802;2023-12-20T14:44:14;4.95;;;2.58;;
53521;SDS011;39398;48.382;9.802;2023-12-20T14:49:16;3.85;;;2.03;;
53521;SDS011;39398;48.382;9.802;2023-12-20T14:54:18;5.65;;;2.70;;
53521;SDS011;39398;48.382;9.802;2023-12-20T14:59:21;3.78;;;2.20;;
53521;SDS011;39398;48.382;9.802;2023-12-20T15:04:23;4.60;;;2.10;;
53521;SDS011;39398;48.382;9.802;2023-12-20T15:09:25;4.35;;;1.88;;
53521;SDS011;39398;48.382;9.802;2023-12-20T15:14:28;7.53;;;2.10;;
53521;SDS011;39398;48.382;9.802;2023-12-20T15:19:30;4.43;;;1.90;;
53521;SDS011;39398;48.382;9.802;2023-12-20T15:24:32;2.58;;;1.67;;
53521;SDS011;39398;48.382;9.802;2023-12-20T15:29:37;7.10;;;2.30;;
53521;SDS011;39398;48.382;9.802;2023-12-20T15:34:39;8.23;;;3.92;;
53521;SDS011;39398;48.382;9.802;2023-12-20T15:39:41;8.18;;;2.20;;
53521;SDS011;39398;48.382;9.802;2023-12-20T15:44:44;7.43;;;3.30;;
53521;SDS011;39398;48.382;9.802;2023-12-20T15:49:46;8.18;;;2.47;;
53521;SDS011;39398;48.382;9.802;2023-12-20T15:54:48;3.63;;;1.83;;
53521;SDS011;39398;48.382;9.802;2023-12-20T15:59:51;7.80;;;2.50;;
53521;SDS011;39398;48.382;9.802;2023-12-20T16:04:52;6.65;;;1.90;;
53521;SDS011;39398;48.382;9.802;2023-12-20T16:09:54;3.75;;;1.80;;
53521;SDS011;39398;48.382;9.802;2023-12-20T16:14:58;4.20;;;1.50;;
53521;SDS011;39398;48.382;9.802;2023-12-20T16:19:59;5.25;;;1.95;;
53521;SDS011;39398;48.382;9.802;2023-12-20T16:25:01;3.28;;;2.00;;
53521;SDS011;39398;48.382;9.802;2023-12-20T16:30:04;3.70;;;1.77;;
53521;SDS011;39398;48.382;9.802;2023-12-20T16:35:07;5.18;;;1.90;;
53521;SDS011;39398;48.382;9.802;2023-12-20T16:40:10;7.63;;;2.97;;
53521;SDS011;39398;48.382;9.802;2023-12-20T16:45:13;12.18;;;5.55;;
53521;SDS011;39398;48.382;9.802;2023-12-20T16:50:15;6.50;;;1.90;;
53521;SDS011;39398;48.382;9.802;2023-12-20T16:55:17;6.30;;;1.92;;
53521;SDS011;39398;48.382;9.802;2023-12-20T17:00:20;8.52;;;3.95;;
53521;SDS011;39398;48.382;9.802;2023-12-20T17:05:22;4.55;;;2.53;;
53521;SDS011;39398;48.382;9.802;2023-12-20T17:10:25;15.00;;;6.85;;
53521;SDS011;39398;48.382;9.802;2023-12-20T17:15:28;5.10;;;2.00;;
53521;SDS011;39398;48.382;9.802;2023-12-20T17:20:29;6.05;;;2.20;;
53521;SDS011;39398;48.382;9.802;2023-12-20T17:25:31;5.35;;;2.50;;
53521;SDS011;39398;48.382;9.802;2023-12-20T17:30:34;8.52;;;2.78;;
53521;SDS011;39398;48.382;9.802;2023-12-20T17:35:36;5.32;;;2.65;;
53521;SDS011;39398;48.382;9.802;2023-12-20T17:40:37;7.28;;;4.18;;
53521;SDS011;39398;48.382;9.802;2023-12-20T17:45:40;7.32;;;4.95;;
53521;SDS011;39398;48.382;9.802;2023-12-20T17:50:42;4.78;;;1.83;;
53521;SDS011;39398;48.382;9.802;2023-12-20T17:55:44;6.93;;;2.53;;
53521;SDS011;39398;48.382;9.802;2023-12-20T18:00:47;5.95;;;1.98;;
53521;SDS011;39398;48.382;9.802;2023-12-20T18:05:49;7.10;;;2.15;;
53521;SDS011;39398;48.382;9.802;2023-12-20T18:10:51;4.15;;;2.40;;
53521;SDS011;39398;48.382;9.802;2023-12-20T18:15:54;7.32;;;2.20;;
53521;SDS011;39398;48.382;9.802;2023-12-20T18:20:56;7.68;;;3.38;;
53521;SDS011;39398;48.382;9.802;2023-12-20T18:26:03;3.72;;;2.10;;
53521;SDS011;39398;48.382;9.802;2023-12-20T18:31:06;7.65;;;2.33;;
53521;SDS011;39398;48.382;9.802;2023-12-20T18:36:09;6.13;;;2.08;;
53521;SDS011;39398;48.382;9.802;2023-12-20T18:41:11;7.07;;;2.28;;
53521;SDS011;39398;48.382;9.802;2023-12-20T18:46:14;18.38;;;9.80;;
53521;SDS011;39398;48.382;9.802;2023-12-20T18:51:15;5.13;;;2.72;;
53521;SDS011;39398;48.382;9.802;2023-12-20T18:56:17;12.32;;;5.28;;
53521;SDS011;39398;48.382;9.802;2023-12-20T19:01:20;7.70;;;2.40;;
53521;SDS011;39398;48.382;9.802;2023-12-20T19:06:21;9.18;;;2.97;;
53521;SDS011;39398;48.382;9.802;2023-12-20T19:11:23;9.32;;;4.15;;
53521;SDS011;39398;48.382;9.802;2023-12-20T19:16:26;7.15;;;3.05;;
53521;SDS011;39398;48.382;9.802;2023-12-20T19:21:27;6.50;;;2.78;;
53521;SDS011;39398;48.382;9.802;2023-12-20T19:26:29;6.72;;;2.90;;
53521;SDS011;39398;48.382;9.802;2023-12-20T19:31:32;14.20;;;6.57;;
53521;SDS011;39398;48.382;9.802;2023-12-20T19:36:34;17.92;;;8.73;;
53521;SDS011;39398;48.382;9.802;2023-12-20T19:41:36;12.23;;;6.78;;
53521;SDS011;39398;48.382;9.802;2023-12-20T19:46:39;6.50;;;3.88;;
53521;SDS011;39398;48.382;9.802;2023-12-20T19:51:41;8.73;;;5.07;;
53521;SDS011;39398;48.382;9.802;2023-12-20T19:56:44;11.95;;;5.88;;
53521;SDS011;39398;48.382;9.802;2023-12-20T20:01:49;7.35;;;3.35;;
53521;SDS011;39398;48.382;9.802;2023-12-20T20:06:50;10.45;;;3.53;;
53521;SDS011;39398;48.382;9.802;2023-12-20T20:11:52;5.65;;;2.67;;
53521;SDS011;39398;48.382;9.802;2023-12-20T20:16:55;8.07;;;3.08;;
53521;SDS011;39398;48.382;9.802;2023-12-20T20:21:57;7.40;;;2.92;;
53521;SDS011;39398;48.382;9.802;2023-12-20T20:26:58;7.38;;;3.30;;
53521;SDS011;39398;48.382;9.802;2023-12-20T20:32:01;10.20;;;3.50;;
53521;SDS011;39398;48.382;9.802;2023-12-20T20:37:03;11.10;;;3.13;;
53521;SDS011;39398;48.382;9.802;2023-12-20T20:42:05;5.30;;;3.25;;
53521;SDS011;39398;48.382;9.802;2023-12-20T20:47:08;7.10;;;3.40;;
53521;SDS011;39398;48.382;9.802;2023-12-20T20:52:10;12.45;;;4.00;;
53521;SDS011;39398;48.382;9.802;2023-12-20T20:57:11;10.68;;;4.80;;
53521;SDS011;39398;48.382;9.802;2023-12-20T21:02:14;7.40;;;3.20;;
53521;SDS011;39398;48.382;9.802;2023-12-20T21:07:16;7.85;;;3.40;;
53521;SDS011;39398;48.382;9.802;2023-12-20T21:12:17;14.88;;;6.20;;
53521;SDS011;39398;48.382;9.802;2023-12-20T21:17:20;12.82;;;5.38;;
53521;SDS011;39398;48.382;9.802;2023-12-20T21:22:22;11.20;;;4.28;;
53521;SDS011;39398;48.382;9.802;2023-12-20T21:27:23;7.97;;;3.00;;
53521;SDS011;39398;48.382;9.802;2023-12-20T21:32:26;12.10;;;3.75;;
53521;SDS011;39398;48.382;9.802;2023-12-20T21:37:28;9.93;;;3.78;;
53521;SDS011;39398;48.382;9.802;2023-12-20T21:42:30;9.68;;;3.90;;
53521;SDS011;39398;48.382;9.802;2023-12-20T21:47:33;8.00;;;3.10;;
53521;SDS011;39398;48.382;9.802;2023-12-20T21:52:34;6.40;;;3.17;;
53521;SDS011;39398;48.382;9.802;2023-12-20T21:57:36;7.95;;;4.30;;
53521;SDS011;39398;48.382;9.802;2023-12-20T22:02:39;12.55;;;3.80;;
53521;SDS011;39398;48.382;9.802;2023-12-20T22:07:40;8.00;;;3.20;;
53521;SDS011;39398;48.382;9.802;2023-12-20T22:12:42;12.68;;;3.33;;
53521;SDS011;39398;48.382;9.802;2023-12-20T22:17:45;7.22;;;3.95;;
53521;SDS011;39398;48.382;9.802;2023-12-20T22:22:47;9.20;;;3.25;;
53521;SDS011;39398;48.382;9.802;2023-12-20T22:27:48;10.60;;;5.00;;
53521;SDS011;39398;48.382;9.802;2023-12-20T22:32:52;11.63;;;4.05;;
53521;SDS011;39398;48.382;9.802;2023-12-20T22:37:53;8.25;;;3.55;;
53521;SDS011;39398;48.382;9.802;2023-12-20T22:42:55;6.63;;;3.40;;
53521;SDS011;39398;48.382;9.802;2023-12-20T22:47:58;6.43;;;3.50;;
53521;SDS011;39398;48.382;9.802;2023-12-20T22:53:00;11.88;;;4.40;;
53521;SDS011;39398;48.382;9.802;2023-12-20T22:58:01;13.30;;;4.35;;
53521;SDS011;39398;48.382;9.802;2023-12-20T23:03:04;8.85;;;3.47;;
53521;SDS011;39398;48.382;9.802;2023-12-20T23:08:06;6.45;;;3.20;;
53521;SDS011;39398;48.382;9.802;2023-12-20T23:13:07;7.57;;;2.80;;
53521;SDS011;39398;48.382;9.802;2023-12-20T23:18:10;5.35;;;2.80;;
53521;SDS011;39398;48.382;9.802;2023-12-20T23:23:12;7.60;;;2.53;;
53521;SDS011;39398;48.382;9.802;2023-12-20T23:28:14;8.13;;;2.78;;
53521;SDS011;39398;48.382;9.802;2023-12-20T23:33:17;5.88;;;2.80;;
53521;SDS011;39398;48.382;9.802;2023-12-20T23:38:18;5.57;;;2.70;;
53521;SDS011;39398;48.382;9.802;2023-12-20T23:43:20;8.05;;;2.80;;
53521;SDS011;39398;48.382;9.802;2023-12-20T23:48:23;5.25;;;2.03;;
53521;SDS011;39398;48.382;9.802;2023-12-20T23:53:25;4.88;;;2.00;;
53521;SDS011;39398;48.382;9.802;2023-12-20T23:58:26;3.78;;;1.90;;
